createdAt,value
2022-08-03T00:02:19.202Z,19.00
2022-08-03T00:04:47.345Z,18.90
2022-08-03T00:07:17.097Z,18.80
2022-08-03T00:09:45.395Z,18.80
2022-08-03T00:12:13.841Z,18.70
2022-08-03T00:14:42.136Z,18.70
2022-08-03T00:17:10.322Z,18.60
2022-08-03T00:19:38.519Z,18.40
2022-08-03T00:22:06.577Z,18.40
2022-08-03T00:24:36.383Z,18.30
2022-08-03T00:27:04.597Z,18.40
2022-08-03T00:29:33.626Z,18.40
2022-08-03T00:32:21.651Z,18.30
2022-08-03T00:34:57.569Z,18.30
2022-08-03T00:37:41.704Z,18.30
2022-08-03T00:40:13.767Z,18.30
2022-08-03T00:42:53.699Z,18.20
2022-08-03T00:45:23.221Z,18.20
2022-08-03T00:47:52.027Z,18.10
2022-08-03T00:50:22.968Z,18.00
2022-08-03T00:52:53.223Z,18.00
2022-08-03T00:55:22.801Z,18.10
2022-08-03T00:57:51.087Z,18.10
2022-08-03T01:00:22.917Z,18.10
2022-08-03T01:02:51.560Z,18.10
2022-08-03T01:05:20.389Z,18.10
2022-08-03T01:08:01.466Z,18.10
2022-08-03T01:10:40.913Z,18.00
2022-08-03T01:14:01.334Z,18.00
2022-08-03T01:16:18.311Z,18.00
2022-08-03T01:18:52.644Z,18.00
2022-08-03T01:21:27.713Z,18.00
2022-08-03T01:24:04.705Z,17.90
2022-08-03T01:27:03.238Z,17.90
2022-08-03T01:30:03.385Z,17.90
2022-08-03T01:33:03.014Z,17.80
2022-08-03T01:35:38.726Z,17.90
2022-08-03T01:38:13.120Z,17.80
2022-08-03T01:40:44.397Z,17.80
2022-08-03T01:43:14.981Z,17.80
2022-08-03T01:46:05.461Z,17.80
2022-08-03T01:48:34.306Z,17.70
2022-08-03T01:51:02.964Z,17.70
2022-08-03T01:53:34.508Z,17.70
2022-08-03T01:56:03.610Z,17.60
2022-08-03T01:58:36.325Z,17.60
2022-08-03T02:01:07.419Z,17.60
2022-08-03T02:04:00.889Z,17.70
2022-08-03T02:06:59.691Z,17.70
2022-08-03T02:09:19.333Z,17.70
2022-08-03T02:11:48.709Z,17.60
2022-08-03T02:14:18.482Z,17.60
2022-08-03T02:16:50.389Z,17.50
2022-08-03T02:19:20.168Z,17.50
2022-08-03T02:21:57.471Z,17.40
2022-08-03T02:24:30.400Z,17.30
2022-08-03T02:27:00.281Z,17.30
2022-08-03T02:29:38.641Z,17.30
2022-08-03T02:32:12.918Z,17.30
2022-08-03T02:34:43.211Z,17.20
2022-08-03T02:37:13.271Z,17.20
2022-08-03T02:39:43.209Z,17.20
2022-08-03T02:42:13.710Z,17.20
2022-08-03T02:44:47.634Z,17.20
2022-08-03T02:47:20.870Z,17.10
2022-08-03T02:49:52.211Z,17.10
2022-08-03T02:52:23.217Z,17.10
2022-08-03T02:54:55.881Z,17.00
2022-08-03T02:57:25.962Z,17.00
2022-08-03T02:59:55.594Z,17.00
2022-08-03T03:02:26.049Z,17.00
2022-08-03T03:05:52.758Z,17.00
2022-08-03T03:07:53.077Z,17.10
2022-08-03T03:10:23.289Z,17.00
2022-08-03T03:12:53.482Z,16.90
2022-08-03T03:15:21.734Z,17.00
2022-08-03T03:17:53.493Z,17.00
2022-08-03T03:20:29.471Z,17.10
2022-08-03T03:23:00.422Z,17.00
2022-08-03T03:25:29.877Z,16.90
2022-08-03T03:27:58.432Z,16.80
2022-08-03T03:30:27.988Z,16.70
2022-08-03T03:32:59.482Z,16.70
2022-08-03T03:35:29.004Z,16.60
2022-08-03T03:37:57.724Z,16.50
2022-08-03T03:40:25.927Z,16.60
2022-08-03T03:42:54.210Z,16.60
2022-08-03T03:45:23.457Z,16.50
2022-08-03T03:47:51.733Z,16.40
2022-08-03T03:50:23.433Z,16.40
2022-08-03T03:52:51.606Z,16.40
2022-08-03T03:55:20.137Z,16.40
2022-08-03T03:57:48.284Z,16.40
2022-08-03T04:00:18.648Z,16.50
2022-08-03T04:02:47.577Z,16.50
2022-08-03T04:05:34.823Z,16.50
2022-08-03T04:08:25.064Z,16.40
2022-08-03T04:11:03.906Z,16.40
2022-08-03T04:13:35.276Z,16.40
2022-08-03T04:16:05.268Z,16.40
2022-08-03T04:18:36.276Z,16.40
2022-08-03T04:21:08.070Z,16.50
2022-08-03T04:23:42.547Z,16.50
2022-08-03T04:26:14.544Z,16.60
2022-08-03T04:28:46.006Z,16.70
2022-08-03T04:31:17.204Z,16.80
2022-08-03T04:33:46.640Z,17.00
2022-08-03T04:36:19.916Z,17.40
2022-08-03T04:38:59.062Z,18.00
2022-08-03T04:41:28.795Z,18.60
2022-08-03T04:44:00.206Z,18.90
2022-08-03T04:46:32.950Z,19.30
2022-08-03T04:49:02.066Z,19.60
2022-08-03T04:51:31.166Z,20.10
2022-08-03T04:54:00.720Z,20.40
2022-08-03T04:56:29.276Z,20.70
2022-08-03T04:58:57.405Z,21.10
2022-08-03T05:01:25.515Z,21.60
2022-08-03T05:03:53.848Z,21.90
2022-08-03T05:06:21.928Z,22.00
2022-08-03T05:08:53.616Z,22.30
2022-08-03T05:11:23.169Z,22.80
2022-08-03T05:13:51.413Z,23.40
2022-08-03T05:16:19.987Z,23.90
2022-08-03T05:18:48.078Z,24.40
2022-08-03T05:21:16.864Z,24.90
2022-08-03T05:23:45.373Z,25.50
2022-08-03T05:26:13.535Z,25.80
2022-08-03T05:28:51.237Z,26.00
2022-08-03T05:31:20.248Z,26.30
2022-08-03T05:33:48.999Z,26.70
2022-08-03T05:36:17.302Z,27.40
2022-08-03T05:38:45.469Z,28.00
2022-08-03T05:41:22.327Z,28.70
2022-08-03T05:43:53.662Z,29.30
2022-08-03T05:46:22.362Z,29.90
2022-08-03T05:48:50.653Z,30.40
2022-08-03T05:51:18.772Z,30.90
2022-08-03T05:53:47.081Z,31.30
2022-08-03T05:56:16.627Z,31.90
2022-08-03T05:58:46.985Z,32.30
2022-08-03T06:01:17.688Z,32.70
2022-08-03T06:03:46.134Z,33.20
2022-08-03T06:06:14.578Z,33.60
2022-08-03T06:08:43.471Z,33.90
2022-08-03T06:11:11.753Z,34.20
2022-08-03T06:13:40.560Z,34.20
2022-08-03T06:16:08.874Z,34.40
2022-08-03T06:18:39.048Z,34.80
2022-08-03T06:21:09.682Z,35.30
2022-08-03T06:23:54.212Z,35.60
2022-08-03T06:26:28.710Z,35.60
2022-08-03T06:28:57.163Z,36.00
2022-08-03T06:31:33.383Z,36.50
2022-08-03T06:34:32.503Z,37.10
2022-08-03T06:37:01.395Z,37.50
2022-08-03T06:39:30.384Z,37.90
2022-08-03T06:41:58.704Z,38.30
2022-08-03T06:44:26.952Z,38.60
2022-08-03T06:46:55.092Z,38.50
2022-08-03T06:49:24.740Z,38.80
2022-08-03T06:52:04.287Z,39.30
2022-08-03T06:54:36.370Z,39.70
2022-08-03T06:57:05.378Z,40.10
2022-08-03T07:00:08.293Z,40.30
2022-08-03T07:02:22.621Z,40.70
2022-08-03T07:04:52.223Z,41.10
2022-08-03T07:07:20.636Z,41.40
2022-08-03T07:09:56.989Z,41.50
2022-08-03T07:12:27.198Z,42.00
2022-08-03T07:14:59.812Z,42.30
2022-08-03T07:17:30.004Z,42.60
2022-08-03T07:19:59.685Z,42.60
2022-08-03T07:22:28.345Z,42.90
2022-08-03T07:24:56.575Z,43.20
2022-08-03T07:27:26.777Z,43.50
2022-08-03T07:29:58.447Z,43.80
2022-08-03T07:32:28.465Z,44.20
2022-08-03T07:35:00.613Z,44.60
2022-08-03T07:37:32.083Z,44.80
2022-08-03T07:40:00.802Z,45.10
2022-08-03T07:42:29.131Z,45.30
2022-08-03T07:44:57.976Z,45.10
2022-08-03T07:47:35.353Z,44.70
2022-08-03T07:50:05.269Z,44.80
2022-08-03T07:52:50.511Z,45.50
2022-08-03T07:55:20.025Z,45.70
2022-08-03T07:57:48.273Z,46.10
2022-08-03T08:00:18.484Z,46.40
2022-08-03T08:02:47.138Z,46.60
2022-08-03T08:05:15.324Z,46.60
2022-08-03T08:07:51.016Z,46.40
2022-08-03T08:10:20.323Z,46.30
2022-08-03T08:12:49.371Z,46.50
2022-08-03T08:15:17.778Z,46.80
2022-08-03T08:17:48.043Z,47.20
2022-08-03T08:20:23.826Z,47.60
2022-08-03T08:23:01.138Z,47.90
2022-08-03T08:25:31.347Z,47.50
2022-08-03T08:28:31.452Z,47.50
2022-08-03T08:30:51.766Z,47.70
2022-08-03T08:33:23.286Z,47.70
2022-08-03T08:35:53.583Z,48.20
2022-08-03T08:38:23.836Z,48.60
2022-08-03T08:40:52.473Z,49.40
2022-08-03T08:43:20.753Z,49.90
2022-08-03T08:45:51.221Z,50.40
2022-08-03T08:48:24.135Z,50.60
2022-08-03T08:50:55.266Z,50.40
2022-08-03T08:53:29.063Z,50.30
2022-08-03T08:56:01.530Z,49.70
2022-08-03T08:58:38.710Z,49.30
2022-08-03T09:01:07.183Z,48.60
2022-08-03T09:03:35.556Z,48.40
2022-08-03T09:06:04.450Z,48.80
2022-08-03T09:08:34.593Z,47.60
2022-08-03T09:11:02.730Z,46.30
2022-08-03T09:13:31.930Z,45.70
2022-08-03T09:16:12.066Z,45.30
2022-08-03T09:18:41.275Z,46.10
2022-08-03T09:21:34.295Z,46.90
2022-08-03T09:24:10.494Z,47.10
2022-08-03T09:26:53.645Z,48.00
2022-08-03T09:29:23.680Z,49.50
2022-08-03T09:32:06.628Z,50.40
2022-08-03T09:34:34.700Z,51.20
2022-08-03T09:37:13.888Z,51.80
2022-08-03T09:39:43.435Z,52.30
2022-08-03T09:42:14.479Z,51.80
2022-08-03T09:44:45.706Z,51.80
2022-08-03T09:47:15.342Z,51.50
2022-08-03T09:50:00.536Z,51.60
2022-08-03T09:52:38.651Z,52.10
2022-08-03T09:56:05.201Z,52.40
2022-08-03T09:58:10.460Z,52.40
2022-08-03T10:00:54.972Z,52.30
2022-08-03T10:03:23.557Z,52.60
2022-08-03T10:05:56.034Z,53.10
2022-08-03T10:08:27.371Z,53.80
2022-08-03T10:10:58.704Z,53.70
2022-08-03T10:13:27.091Z,53.20
2022-08-03T10:16:24.209Z,53.20
2022-08-03T10:18:43.489Z,53.00
2022-08-03T10:21:18.890Z,52.30
2022-08-03T10:23:51.237Z,51.40
2022-08-03T10:26:26.526Z,49.60
2022-08-03T10:28:57.595Z,48.90
2022-08-03T10:31:27.454Z,48.50
2022-08-03T10:34:00.376Z,49.20
2022-08-03T10:36:28.810Z,49.60
2022-08-03T10:38:58.791Z,49.60
2022-08-03T10:41:33.031Z,49.40
2022-08-03T10:44:07.065Z,49.20
2022-08-03T10:46:40.311Z,49.20
2022-08-03T10:49:15.151Z,50.10
2022-08-03T10:51:43.912Z,50.70
2022-08-03T10:55:00.520Z,50.70
2022-08-03T10:57:49.888Z,51.70
2022-08-03T11:00:19.303Z,52.50
2022-08-03T11:03:06.443Z,52.90
2022-08-03T11:05:37.448Z,52.50
2022-08-03T11:08:22.845Z,53.50
2022-08-03T11:10:52.666Z,53.80
2022-08-03T11:13:24.625Z,53.60
2022-08-03T11:16:00.094Z,53.20
2022-08-03T11:18:31.732Z,53.10
2022-08-03T11:21:01.484Z,52.80
2022-08-03T11:24:04.941Z,52.30
2022-08-03T11:26:33.019Z,51.30
2022-08-03T11:29:30.251Z,50.30
2022-08-03T11:31:58.851Z,50.10
2022-08-03T11:34:27.593Z,49.20
2022-08-03T11:37:28.799Z,48.90
2022-08-03T11:39:59.674Z,48.40
2022-08-03T11:42:47.974Z,49.70
2022-08-03T11:45:19.817Z,50.90
2022-08-03T11:47:51.476Z,51.60
2022-08-03T11:50:21.391Z,51.90
2022-08-03T11:52:51.400Z,52.40
2022-08-03T11:55:22.044Z,52.40
2022-08-03T11:59:16.560Z,52.70
2022-08-03T12:00:40.622Z,53.40
2022-08-03T12:03:11.139Z,53.80
2022-08-03T12:05:51.617Z,52.80
2022-08-03T12:08:32.389Z,52.70
2022-08-03T12:11:02.987Z,53.20
2022-08-03T12:14:10.683Z,53.90
2022-08-03T12:16:29.650Z,53.20
2022-08-03T12:18:58.911Z,52.60
2022-08-03T12:21:27.323Z,50.90
2022-08-03T12:24:00.591Z,49.10
2022-08-03T12:26:31.441Z,48.50
2022-08-03T12:28:59.630Z,48.40
2022-08-03T12:31:29.454Z,48.50
2022-08-03T12:33:59.794Z,48.60
2022-08-03T12:36:29.222Z,48.00
2022-08-03T12:38:59.252Z,48.10
2022-08-03T12:41:34.022Z,48.40
2022-08-03T12:44:04.324Z,48.40
2022-08-03T12:46:36.439Z,47.80
2022-08-03T12:49:07.917Z,47.90
2022-08-03T12:51:37.758Z,48.60
2022-08-03T12:54:06.775Z,49.20
2022-08-03T12:56:35.325Z,49.90
2022-08-03T12:59:32.341Z,49.90
2022-08-03T13:02:09.534Z,49.50
2022-08-03T13:04:38.316Z,49.70
2022-08-03T13:07:12.850Z,49.40
2022-08-03T13:09:44.325Z,48.90
2022-08-03T13:12:14.519Z,47.90
2022-08-03T13:14:45.000Z,47.70
2022-08-03T13:17:14.000Z,47.90
2022-08-03T13:19:42.470Z,48.10
2022-08-03T13:22:14.399Z,48.70
2022-08-03T13:24:43.781Z,49.20
2022-08-03T13:28:01.812Z,49.20
2022-08-03T13:30:03.816Z,49.80
2022-08-03T13:32:32.181Z,49.60
2022-08-03T13:35:00.325Z,49.40
2022-08-03T13:37:28.401Z,49.00
2022-08-03T13:39:59.285Z,49.10
2022-08-03T13:42:30.755Z,49.70
2022-08-03T13:44:59.331Z,49.90
2022-08-03T13:47:29.598Z,49.50
2022-08-03T13:50:01.049Z,49.10
2022-08-03T13:52:33.695Z,49.50
2022-08-03T13:55:02.360Z,50.00
2022-08-03T13:58:03.131Z,50.20
2022-08-03T14:00:28.014Z,49.50
2022-08-03T14:03:12.867Z,49.20
2022-08-03T14:05:42.122Z,48.80
2022-08-03T14:08:10.971Z,48.40
2022-08-03T14:10:41.142Z,48.40
2022-08-03T14:13:10.002Z,47.60
2022-08-03T14:15:38.792Z,46.70
2022-08-03T14:18:12.736Z,46.50
2022-08-03T14:20:47.832Z,46.60
2022-08-03T14:23:19.762Z,46.20
2022-08-03T14:25:51.870Z,46.00
2022-08-03T14:28:21.132Z,46.60
2022-08-03T14:30:49.321Z,47.00
2022-08-03T14:33:18.921Z,47.20
2022-08-03T14:35:47.133Z,47.40
2022-08-03T14:38:15.657Z,47.50
2022-08-03T14:40:44.105Z,47.70
2022-08-03T14:43:12.458Z,48.00
2022-08-03T14:45:40.860Z,48.20
2022-08-03T14:50:33.698Z,48.60
2022-08-03T14:50:58.492Z,48.60
2022-08-03T14:53:26.722Z,48.00
2022-08-03T14:55:54.805Z,47.70
2022-08-03T14:58:23.649Z,47.50
2022-08-03T15:00:53.082Z,47.30
2022-08-03T15:03:23.736Z,46.70
2022-08-03T15:05:53.044Z,46.90
2022-08-03T15:08:23.548Z,47.00
2022-08-03T15:10:52.150Z,46.90
2022-08-03T15:13:21.452Z,46.90
2022-08-03T15:15:51.717Z,47.20
2022-08-03T15:18:21.121Z,47.50
2022-08-03T15:20:50.656Z,47.50
2022-08-03T15:23:20.147Z,47.60
2022-08-03T15:26:28.008Z,47.50
2022-08-03T15:28:37.931Z,47.60
2022-08-03T15:31:06.973Z,47.40
2022-08-03T15:33:35.536Z,47.30
2022-08-03T15:36:04.418Z,47.10
2022-08-03T15:38:32.637Z,47.20
2022-08-03T15:41:02.088Z,46.90
2022-08-03T15:43:30.183Z,46.70
2022-08-03T15:46:26.917Z,46.50
2022-08-03T15:48:47.264Z,46.00
2022-08-03T15:51:15.885Z,45.60
2022-08-03T15:53:44.058Z,45.50
2022-08-03T15:56:18.255Z,45.40
2022-08-03T15:59:03.849Z,45.30
2022-08-03T16:01:35.697Z,44.70
2022-08-03T16:04:04.416Z,44.20
2022-08-03T16:06:35.146Z,43.70
2022-08-03T16:09:24.199Z,43.00
2022-08-03T16:11:56.945Z,42.80
2022-08-03T16:14:32.020Z,42.60
2022-08-03T16:17:01.614Z,42.60
2022-08-03T16:19:29.798Z,42.50
2022-08-03T16:21:57.896Z,42.80
2022-08-03T16:24:28.100Z,42.90
2022-08-03T16:26:58.127Z,43.10
2022-08-03T16:29:29.453Z,43.40
2022-08-03T16:31:57.597Z,43.60
2022-08-03T16:34:25.891Z,43.80
2022-08-03T16:36:54.598Z,43.60
2022-08-03T16:39:22.853Z,43.40
2022-08-03T16:41:53.887Z,43.20
2022-08-03T16:44:31.631Z,42.60
2022-08-03T16:47:00.164Z,42.20
2022-08-03T16:49:55.396Z,41.70
2022-08-03T16:52:17.935Z,41.60
2022-08-03T16:54:52.900Z,41.60
2022-08-03T16:57:59.291Z,41.70
2022-08-03T17:00:33.829Z,41.60
2022-08-03T17:03:18.928Z,41.30
2022-08-03T17:05:50.033Z,40.60
2022-08-03T17:08:26.521Z,40.10
2022-08-03T17:10:55.996Z,39.60
2022-08-03T17:13:38.896Z,39.00
2022-08-03T17:16:12.057Z,38.80
2022-08-03T17:18:52.313Z,38.50
2022-08-03T17:21:24.680Z,38.30
2022-08-03T17:24:03.669Z,38.00
2022-08-03T17:26:35.023Z,37.80
2022-08-03T17:29:11.456Z,37.50
2022-08-03T17:31:49.652Z,37.30
2022-08-03T17:34:19.685Z,37.10
2022-08-03T17:37:05.768Z,36.90
2022-08-03T17:42:31.187Z,36.50
2022-08-03T17:45:03.508Z,36.30
2022-08-03T17:47:57.072Z,36.20
2022-08-03T17:50:33.640Z,36.00
2022-08-03T17:53:07.669Z,35.80
2022-08-03T17:55:55.830Z,35.60
2022-08-03T17:58:43.636Z,35.40
2022-08-03T18:01:59.235Z,35.30
2022-08-03T18:04:30.410Z,35.10
2022-08-03T18:07:11.770Z,34.90
2022-08-03T18:10:03.526Z,34.70
2022-08-03T18:12:45.193Z,34.50
2022-08-03T18:15:20.813Z,34.40
2022-08-03T18:17:58.229Z,34.20
2022-08-03T18:20:41.061Z,34.10
2022-08-03T18:23:25.168Z,33.90
2022-08-03T18:26:02.304Z,33.70
2022-08-03T18:28:33.899Z,33.50
2022-08-03T18:31:05.559Z,33.40
2022-08-03T18:34:32.226Z,33.20
2022-08-03T18:36:30.620Z,33.00
2022-08-03T18:39:01.812Z,32.90
2022-08-03T18:41:32.480Z,32.70
2022-08-03T18:44:06.801Z,32.60
2022-08-03T18:46:48.361Z,32.50
2022-08-03T18:49:30.880Z,32.30
2022-08-03T18:52:12.503Z,32.10
2022-08-03T18:55:20.216Z,31.90
2022-08-03T18:57:54.221Z,31.70
2022-08-03T19:00:24.461Z,31.50
2022-08-03T19:03:05.803Z,31.30
2022-08-03T19:06:02.448Z,31.20
2022-08-03T19:08:41.730Z,31.00
2022-08-03T19:11:14.937Z,30.80
2022-08-03T19:13:50.266Z,30.70
2022-08-03T19:16:28.385Z,30.60
2022-08-03T19:19:00.088Z,30.50
2022-08-03T19:21:30.645Z,30.30
2022-08-03T19:24:09.493Z,30.20
2022-08-03T19:26:41.209Z,30.00
2022-08-03T19:29:14.980Z,29.80
2022-08-03T19:31:59.243Z,29.70
2022-08-03T19:34:30.321Z,29.50
2022-08-03T19:36:59.242Z,29.40
2022-08-03T19:39:31.709Z,29.20
2022-08-03T19:42:12.201Z,29.20
2022-08-03T19:44:52.814Z,29.10
2022-08-03T19:47:29.350Z,29.00
2022-08-03T19:50:05.792Z,28.90
2022-08-03T19:52:40.252Z,28.80
2022-08-03T19:55:12.160Z,28.60
2022-08-03T19:57:43.395Z,28.50
2022-08-03T20:00:13.815Z,28.40
2022-08-03T20:02:43.004Z,28.30
2022-08-03T20:05:14.959Z,28.10
2022-08-03T20:07:47.650Z,27.90
2022-08-03T20:10:19.009Z,27.70
2022-08-03T20:12:49.233Z,27.60
2022-08-03T20:15:31.273Z,27.50
2022-08-03T20:18:01.152Z,27.40
2022-08-03T20:20:31.627Z,27.30
2022-08-03T20:23:03.310Z,27.20
2022-08-03T20:25:48.705Z,27.10
2022-08-03T20:28:29.740Z,27.10
2022-08-03T20:30:58.042Z,27.00
2022-08-03T20:33:45.796Z,26.90
2022-08-03T20:36:15.917Z,26.90
2022-08-03T20:38:47.456Z,26.70
2022-08-03T20:41:18.270Z,26.60
2022-08-03T20:43:49.448Z,26.40
2022-08-03T20:46:35.399Z,26.30
2022-08-03T20:49:09.123Z,26.20
2022-08-03T20:51:50.351Z,26.10
2022-08-03T20:54:29.500Z,26.00
2022-08-03T20:57:03.716Z,25.80
2022-08-03T20:59:50.461Z,25.70
2022-08-03T21:02:30.231Z,25.60
2022-08-03T21:05:03.443Z,25.50
2022-08-03T21:08:05.746Z,25.30
2022-08-03T21:10:33.411Z,25.20
2022-08-03T21:13:18.036Z,25.10
2022-08-03T21:16:12.835Z,25.00
2022-08-03T21:18:49.817Z,24.90
2022-08-03T21:21:19.548Z,24.90
2022-08-03T21:23:50.943Z,24.80
2022-08-03T21:26:20.203Z,24.80
2022-08-03T21:28:51.726Z,24.70
2022-08-03T21:31:25.289Z,24.70
2022-08-03T21:33:56.413Z,24.70
2022-08-03T21:36:25.538Z,24.70
2022-08-03T21:38:56.319Z,24.60
2022-08-03T21:41:26.127Z,24.70
2022-08-03T21:43:55.918Z,24.60
2022-08-03T21:46:24.736Z,24.60
2022-08-03T21:50:07.622Z,24.60
2022-08-03T21:51:49.371Z,24.50
2022-08-03T21:54:19.827Z,24.50
2022-08-03T21:56:49.195Z,24.40
2022-08-03T21:59:20.438Z,24.30
2022-08-03T22:01:51.422Z,24.20
2022-08-03T22:04:45.916Z,24.20
2022-08-03T22:07:11.661Z,24.20
2022-08-03T22:09:39.904Z,24.10
2022-08-03T22:12:18.577Z,24.00
2022-08-03T22:14:48.572Z,24.00
2022-08-03T22:17:55.517Z,23.90
2022-08-03T22:20:19.279Z,23.90
2022-08-03T22:22:53.605Z,23.80
2022-08-03T22:25:29.880Z,23.70
2022-08-03T22:28:00.279Z,23.70
2022-08-03T22:30:31.497Z,23.60
2022-08-03T22:33:00.827Z,23.60
2022-08-03T22:35:29.380Z,23.50
2022-08-03T22:37:59.558Z,23.50
2022-08-03T22:40:28.692Z,23.40
2022-08-03T22:42:57.775Z,23.40
2022-08-03T22:46:05.930Z,23.30
2022-08-03T22:48:17.756Z,23.30
2022-08-03T22:50:47.043Z,23.30
2022-08-03T22:53:18.925Z,23.30
2022-08-03T22:55:48.788Z,23.30
2022-08-03T22:58:17.388Z,23.30
2022-08-03T23:00:53.828Z,23.30
2022-08-03T23:04:00.151Z,23.30
2022-08-03T23:06:17.703Z,23.20
2022-08-03T23:08:48.262Z,23.10
2022-08-03T23:11:19.153Z,23.10
2022-08-03T23:13:50.784Z,23.00
2022-08-03T23:16:28.791Z,23.00
2022-08-03T23:19:16.948Z,22.90
2022-08-03T23:21:53.621Z,22.80
2022-08-03T23:24:30.530Z,22.90
2022-08-03T23:26:59.282Z,22.80
2022-08-03T23:29:29.841Z,22.80
2022-08-03T23:31:59.646Z,22.80
2022-08-03T23:34:46.977Z,22.80
2022-08-03T23:37:15.819Z,22.80
2022-08-03T23:39:45.696Z,22.80
2022-08-03T23:42:16.077Z,22.80
2022-08-03T23:44:45.409Z,22.80
2022-08-03T23:47:13.851Z,22.80
2022-08-03T23:49:43.670Z,22.80
2022-08-03T23:52:20.130Z,22.80
2022-08-03T23:55:02.284Z,22.70
2022-08-03T23:57:34.006Z,22.70
